Cecilia, Kentucky
Current Conditions -  °F | °C
As of 9:58 AM on Monday 22 Dec 2014 (Local Time) from KFTK Reporting Station
Overcast Overcast  
Wind Chill: 37°   Ceiling: 2700
Heat Index: 41°   Visibility: 10mi
Dew Point: 34°   Wind: 6mph
Humidity: 77%   Direction: 80°E
Pressure: 29.94"   Gusts: NA
Location:  37.67°N, 85.96°W
Report Text: KFTK 221458Z AUTO 08005KT 10SM OVC027 05/01 A2994 RMK AO2 SLP146 T00500013 57007
Loading
Personal Weather Stations






























Interactive Weather Map New forecast layout! Learn more

10-Day Weather Forecast

Advertisements
Track Severe Weather on mobile